createdAt,value
2019-05-13T00:00:44.612Z,84.60
2019-05-13T00:03:13.834Z,84.40
2019-05-13T00:05:44.566Z,84.70
2019-05-13T00:08:13.996Z,84.50
2019-05-13T00:10:44.039Z,84.70
2019-05-13T00:13:14.817Z,84.60
2019-05-13T00:15:44.295Z,84.70
2019-05-13T00:18:14.451Z,84.80
2019-05-13T00:20:44.349Z,84.70
2019-05-13T00:23:14.260Z,84.90
2019-05-13T00:25:44.447Z,84.70
2019-05-13T00:28:14.540Z,84.90
2019-05-13T00:30:44.496Z,84.50
2019-05-13T00:33:14.129Z,84.10
2019-05-13T00:35:44.296Z,84.00
2019-05-13T00:38:14.099Z,83.50
2019-05-13T00:40:44.326Z,83.50
2019-05-13T00:43:14.242Z,84.40
2019-05-13T00:45:44.539Z,83.10
2019-05-13T00:48:14.353Z,82.40
2019-05-13T00:50:44.278Z,82.20
2019-05-13T00:53:13.479Z,82.40
2019-05-13T00:55:44.389Z,82.30
2019-05-13T00:58:13.995Z,82.20
2019-05-13T01:00:44.426Z,81.90
2019-05-13T01:03:14.221Z,81.70
2019-05-13T01:05:44.513Z,81.60
2019-05-13T01:08:14.541Z,81.60
2019-05-13T01:10:45.153Z,81.50
2019-05-13T01:13:13.834Z,81.80
2019-05-13T01:15:44.322Z,80.80
2019-05-13T01:18:14.212Z,80.80
2019-05-13T01:20:43.916Z,80.90
2019-05-13T01:23:14.129Z,81.20
2019-05-13T01:25:44.428Z,81.40
2019-05-13T01:28:13.675Z,81.40
2019-05-13T01:30:43.829Z,82.10
2019-05-13T01:33:14.500Z,83.20
2019-05-13T01:35:44.474Z,83.80
2019-05-13T01:38:13.662Z,84.20
2019-05-13T01:40:44.029Z,84.60
2019-05-13T01:43:14.444Z,84.80
2019-05-13T01:45:44.205Z,85.00
2019-05-13T01:48:14.177Z,85.10
2019-05-13T01:50:44.518Z,85.40
2019-05-13T01:53:14.491Z,85.20
2019-05-13T01:55:44.350Z,85.40
2019-05-13T01:58:14.559Z,85.70
2019-05-13T02:00:44.411Z,85.70
2019-05-13T02:03:14.487Z,85.80
2019-05-13T02:05:44.390Z,86.20
2019-05-13T02:08:14.401Z,86.20
2019-05-13T02:10:47.993Z,86.00
2019-05-13T02:13:16.720Z,86.40
2019-05-13T02:15:45.451Z,86.50
2019-05-13T02:18:14.171Z,86.70
2019-05-13T02:20:44.379Z,87.10
2019-05-13T02:23:14.511Z,87.10
2019-05-13T02:25:43.656Z,87.20
2019-05-13T02:28:13.867Z,86.90
2019-05-13T02:30:45.617Z,87.00
2019-05-13T02:33:13.459Z,86.90
2019-05-13T02:35:43.355Z,86.70
2019-05-13T02:38:22.927Z,86.90
2019-05-13T02:40:43.407Z,86.70
2019-05-13T02:43:13.571Z,86.70
2019-05-13T02:45:43.411Z,86.30
2019-05-13T02:48:13.056Z,86.20
2019-05-13T02:50:44.109Z,86.10
2019-05-13T02:53:13.595Z,85.60
2019-05-13T02:55:43.743Z,85.00
2019-05-13T02:58:12.887Z,84.70
2019-05-13T03:00:44.098Z,84.20
2019-05-13T03:03:12.924Z,83.80
2019-05-13T03:05:42.901Z,83.30
2019-05-13T03:08:12.652Z,83.00
2019-05-13T03:10:43.366Z,83.60
2019-05-13T03:13:12.852Z,82.10
2019-05-13T03:15:52.210Z,81.50
2019-05-13T03:18:22.635Z,81.20
2019-05-13T03:20:52.971Z,80.60
2019-05-13T03:23:22.717Z,79.90
2019-05-13T03:25:53.624Z,79.80
2019-05-13T03:28:22.316Z,77.90
2019-05-13T03:30:56.550Z,78.40
2019-05-13T03:33:27.334Z,75.60
2019-05-13T03:35:55.719Z,75.10
2019-05-13T03:38:23.223Z,74.60
2019-05-13T03:40:54.361Z,74.20
2019-05-13T03:43:24.200Z,73.30
2019-05-13T03:45:54.583Z,73.70
2019-05-13T03:48:23.856Z,73.20
2019-05-13T03:50:53.502Z,72.20
2019-05-13T03:53:23.445Z,70.70
2019-05-13T03:55:54.046Z,70.50
2019-05-13T03:58:23.999Z,69.30
2019-05-13T04:00:52.955Z,68.80
2019-05-13T04:03:22.705Z,66.90
2019-05-13T04:05:52.941Z,65.80
2019-05-13T04:08:22.689Z,64.30
2019-05-13T04:10:52.599Z,63.50
2019-05-13T04:13:23.381Z,63.20
2019-05-13T04:15:53.041Z,63.60
2019-05-13T04:18:23.382Z,64.00
2019-05-13T04:20:53.223Z,65.40
2019-05-13T04:23:23.247Z,66.50
2019-05-13T04:25:53.763Z,66.90
2019-05-13T04:28:22.884Z,67.50
2019-05-13T04:30:52.754Z,67.60
2019-05-13T04:33:23.025Z,67.80
2019-05-13T04:35:53.131Z,68.70
2019-05-13T04:38:22.988Z,69.00
2019-05-13T04:40:52.883Z,69.50
2019-05-13T04:43:23.676Z,70.20
2019-05-13T04:45:53.114Z,69.70
2019-05-13T04:48:22.924Z,70.30
2019-05-13T04:50:53.224Z,70.20
2019-05-13T04:53:22.924Z,69.50
2019-05-13T04:55:52.615Z,69.80
2019-05-13T04:58:23.557Z,70.00
2019-05-13T05:01:14.174Z,70.60
2019-05-13T05:03:47.694Z,71.50
2019-05-13T05:06:36.165Z,71.50
2019-05-13T05:09:12.845Z,73.80
2019-05-13T05:12:02.182Z,73.90
2019-05-13T05:14:41.654Z,73.60
2019-05-13T05:17:22.492Z,73.20
2019-05-13T05:20:14.047Z,73.00
2019-05-13T05:22:51.640Z,73.60
2019-05-13T05:25:38.479Z,73.80
2019-05-13T05:28:12.849Z,72.50
2019-05-13T05:30:56.377Z,73.60
2019-05-13T05:33:47.508Z,73.50
2019-05-13T05:36:46.463Z,73.30
2019-05-13T05:39:28.109Z,74.70
2019-05-13T05:41:58.499Z,74.00
2019-05-13T05:44:32.551Z,74.80
2019-05-13T05:47:02.920Z,75.60
2019-05-13T05:49:32.207Z,76.60
2019-05-13T05:52:04.021Z,77.20
2019-05-13T05:54:35.666Z,77.30
2019-05-13T05:57:05.579Z,77.90
2019-05-13T05:59:35.406Z,77.60
2019-05-13T06:02:05.216Z,77.80
2019-05-13T06:04:33.940Z,77.40
2019-05-13T06:07:04.016Z,77.70
2019-05-13T06:09:32.811Z,77.00
2019-05-13T06:12:01.926Z,77.20
2019-05-13T06:14:32.588Z,77.10
2019-05-13T06:17:03.240Z,76.80
2019-05-13T06:19:32.280Z,76.90
2019-05-13T06:22:02.204Z,77.70
2019-05-13T06:24:31.535Z,76.70
2019-05-13T06:27:01.886Z,76.80
2019-05-13T06:29:31.680Z,76.70
2019-05-13T06:32:17.092Z,76.90
2019-05-13T06:34:32.823Z,77.60
2019-05-13T06:37:01.922Z,78.90
2019-05-13T06:39:31.836Z,79.40
2019-05-13T06:42:02.841Z,79.40
2019-05-13T06:44:33.631Z,81.70
2019-05-13T06:47:02.959Z,82.30
2019-05-13T06:49:32.496Z,83.90
2019-05-13T06:52:01.914Z,84.80
2019-05-13T06:54:33.006Z,85.50
2019-05-13T06:57:04.706Z,86.20
2019-05-13T06:59:31.903Z,88.10
2019-05-13T07:02:02.221Z,88.50
2019-05-13T07:04:32.668Z,90.50
2019-05-13T07:07:12.848Z,90.20
2019-05-13T07:09:32.614Z,90.80
2019-05-13T07:12:03.229Z,91.20
2019-05-13T07:14:33.261Z,91.80
2019-05-13T07:17:02.406Z,92.60
2019-05-13T07:19:32.691Z,92.60
2019-05-13T07:22:02.982Z,92.60
2019-05-13T07:24:32.510Z,92.80
2019-05-13T07:27:02.298Z,93.00
2019-05-13T07:29:32.735Z,92.90
2019-05-13T07:32:02.273Z,93.20
2019-05-13T07:34:33.506Z,93.40
2019-05-13T07:37:03.570Z,93.10
2019-05-13T07:39:33.097Z,93.70
2019-05-13T07:42:05.281Z,93.60
2019-05-13T07:44:32.793Z,93.70
2019-05-13T07:47:03.579Z,93.10
2019-05-13T07:49:32.774Z,93.50
2019-05-13T07:52:01.909Z,93.40
2019-05-13T07:54:32.993Z,93.90
2019-05-13T07:57:02.133Z,93.80
2019-05-13T07:59:31.960Z,94.00
2019-05-13T08:02:02.310Z,93.60
2019-05-13T08:04:33.581Z,93.70
2019-05-13T08:07:02.305Z,93.60
2019-05-13T08:09:32.186Z,94.00
2019-05-13T08:12:09.887Z,93.60
2019-05-13T08:14:32.982Z,93.30
2019-05-13T08:17:02.669Z,94.10
2019-05-13T08:19:32.602Z,93.90
2019-05-13T08:22:02.472Z,94.20
2019-05-13T08:24:31.668Z,94.20
2019-05-13T08:27:02.185Z,94.30
2019-05-13T08:29:32.682Z,94.10
2019-05-13T08:32:02.916Z,94.20
2019-05-13T08:34:32.938Z,93.80
2019-05-13T08:37:03.114Z,94.10
2019-05-13T08:39:37.923Z,94.00
2019-05-13T08:42:12.953Z,94.30
2019-05-13T08:44:32.959Z,94.50
2019-05-13T08:47:03.147Z,93.90
2019-05-13T08:49:32.701Z,94.20
2019-05-13T08:52:02.040Z,93.80
2019-05-13T08:54:32.786Z,93.50
2019-05-13T08:57:02.770Z,93.40
2019-05-13T08:59:32.162Z,93.60
2019-05-13T09:02:02.880Z,93.30
2019-05-13T09:04:31.647Z,93.90
2019-05-13T09:07:02.442Z,93.80
2019-05-13T09:09:31.855Z,93.70
2019-05-13T09:12:02.519Z,93.30
2019-05-13T09:14:32.387Z,93.50
2019-05-13T09:17:02.054Z,93.80
2019-05-13T09:19:32.335Z,93.90
2019-05-13T09:22:02.990Z,93.10
2019-05-13T09:24:37.190Z,93.60
2019-05-13T09:27:02.593Z,93.90
2019-05-13T09:29:32.270Z,94.10
2019-05-13T09:32:03.699Z,93.70
2019-05-13T09:34:33.080Z,93.40
2019-05-13T09:37:02.981Z,92.70
2019-05-13T09:39:32.409Z,93.10
2019-05-13T09:42:02.750Z,93.90
2019-05-13T09:44:32.891Z,93.20
2019-05-13T09:47:02.697Z,93.90
2019-05-13T09:49:32.790Z,93.80
2019-05-13T09:52:02.236Z,94.10
2019-05-13T09:54:32.552Z,94.20
2019-05-13T09:57:01.942Z,93.80
2019-05-13T09:59:31.900Z,94.20
2019-05-13T10:02:03.091Z,93.90
2019-05-13T10:04:31.958Z,94.10
2019-05-13T10:07:02.078Z,94.20
2019-05-13T10:09:33.098Z,94.20
2019-05-13T10:12:03.045Z,94.00
2019-05-13T10:14:33.066Z,93.80
2019-05-13T10:17:05.971Z,93.80
2019-05-13T10:19:32.699Z,93.80
2019-05-13T10:22:02.009Z,93.70
2019-05-13T10:24:32.749Z,93.70
2019-05-13T10:27:02.550Z,94.60
2019-05-13T10:29:32.246Z,93.60
2019-05-13T10:32:02.736Z,94.50
2019-05-13T10:34:32.475Z,94.20
2019-05-13T10:37:02.581Z,94.00
2019-05-13T10:39:31.795Z,94.00
2019-05-13T10:42:03.107Z,94.20
2019-05-13T10:44:30.868Z,93.80
2019-05-13T10:47:01.980Z,94.10
2019-05-13T10:49:32.732Z,94.40
2019-05-13T10:52:02.868Z,94.60
2019-05-13T10:54:32.496Z,94.40
2019-05-13T10:57:03.938Z,94.70
2019-05-13T10:59:31.473Z,95.20
2019-05-13T11:02:02.119Z,94.40
2019-05-13T11:04:32.734Z,94.60
2019-05-13T11:07:02.927Z,94.70
2019-05-13T11:09:32.498Z,94.20
2019-05-13T11:12:02.215Z,94.80
2019-05-13T11:14:32.292Z,94.00
2019-05-13T11:17:01.553Z,94.40
2019-05-13T11:19:36.118Z,94.20
2019-05-13T11:22:04.097Z,94.10
2019-05-13T11:24:32.835Z,94.40
2019-05-13T11:27:02.815Z,95.00
2019-05-13T11:29:32.569Z,95.20
2019-05-13T11:32:02.716Z,94.90
2019-05-13T11:34:32.877Z,94.50
2019-05-13T11:37:03.664Z,94.00
2019-05-13T11:39:32.658Z,93.90
2019-05-13T11:42:02.298Z,94.30
2019-05-13T11:44:32.388Z,94.10
2019-05-13T11:47:02.328Z,94.30
2019-05-13T11:49:31.840Z,94.50
2019-05-13T11:52:02.568Z,94.40
2019-05-13T11:54:30.886Z,94.20
2019-05-13T11:57:02.683Z,94.10
2019-05-13T11:59:32.743Z,94.50
2019-05-13T12:02:04.604Z,94.00
2019-05-13T12:04:34.370Z,94.50
2019-05-13T12:07:03.416Z,94.20
2019-05-13T12:09:32.113Z,94.50
2019-05-13T12:12:03.325Z,94.40
2019-05-13T12:14:47.692Z,95.10
2019-05-13T12:17:02.406Z,94.60
2019-05-13T12:19:31.305Z,94.40
2019-05-13T12:22:02.746Z,94.60
2019-05-13T12:24:30.379Z,95.00
2019-05-13T12:26:59.090Z,94.90
2019-05-13T12:29:27.838Z,94.80
2019-05-13T12:31:56.884Z,94.80
2019-05-13T12:34:25.644Z,95.00
2019-05-13T12:36:54.372Z,95.50
2019-05-13T12:39:24.129Z,95.10
2019-05-13T12:41:53.732Z,95.50
2019-05-13T12:44:23.155Z,95.20
2019-05-13T12:46:54.403Z,94.90
2019-05-13T12:49:22.668Z,94.50
2019-05-13T12:51:51.870Z,94.50
2019-05-13T12:54:23.358Z,94.80
2019-05-13T12:56:52.406Z,94.90
2019-05-13T12:59:22.222Z,94.60
2019-05-13T13:01:52.626Z,94.30
2019-05-13T13:04:23.955Z,95.00
2019-05-13T13:06:53.084Z,94.30
2019-05-13T13:09:22.677Z,95.10
2019-05-13T13:11:54.396Z,94.80
2019-05-13T13:14:22.034Z,94.70
2019-05-13T13:19:22.044Z,94.50
2019-05-13T13:21:53.548Z,95.00
2019-05-13T13:24:23.658Z,94.50
2019-05-13T13:26:53.509Z,94.40
2019-05-13T13:29:22.232Z,94.70
2019-05-13T13:31:55.320Z,94.90
2019-05-13T13:34:25.757Z,95.00
2019-05-13T13:36:52.644Z,94.40
2019-05-13T13:39:25.228Z,94.60
2019-05-13T13:41:53.358Z,94.70
2019-05-13T13:46:55.999Z,94.50
2019-05-13T13:49:25.293Z,94.80
2019-05-13T13:51:55.603Z,94.70
2019-05-13T13:54:24.524Z,94.30
2019-05-13T13:56:56.368Z,94.50
2019-05-13T13:59:25.457Z,94.00
2019-05-13T14:01:55.263Z,94.30
2019-05-13T14:04:24.737Z,94.00
2019-05-13T14:06:52.388Z,94.50
2019-05-13T14:06:58.777Z,94.40
2019-05-13T14:07:25.302Z,94.20
2019-05-13T14:09:24.105Z,94.90
2019-05-13T14:11:52.833Z,95.00
2019-05-13T14:14:21.686Z,95.10
2019-05-13T14:16:51.905Z,95.00
2019-05-13T14:19:21.835Z,95.10
2019-05-13T14:21:52.536Z,94.80
2019-05-13T14:24:22.106Z,94.40
2019-05-13T14:26:52.356Z,94.60
2019-05-13T14:29:36.297Z,94.60
2019-05-13T14:31:52.949Z,95.10
2019-05-13T14:34:22.168Z,95.20
2019-05-13T14:36:51.922Z,95.50
2019-05-13T14:39:22.214Z,95.20
2019-05-13T14:41:51.767Z,94.60
2019-05-13T14:44:21.879Z,94.10
2019-05-13T14:46:52.406Z,94.50
2019-05-13T14:49:22.553Z,94.80
2019-05-13T14:51:53.075Z,94.10
2019-05-13T14:54:22.382Z,94.20
2019-05-13T14:56:52.128Z,93.90
2019-05-13T14:59:22.109Z,93.60
2019-05-13T15:01:51.853Z,94.00
2019-05-13T15:04:22.287Z,93.70
2019-05-13T15:06:51.284Z,93.60
2019-05-13T15:09:20.170Z,94.00
2019-05-13T15:11:52.812Z,93.70
2019-05-13T15:14:21.992Z,93.60
2019-05-13T15:17:02.446Z,93.70
2019-05-13T15:19:22.395Z,94.10
2019-05-13T15:21:52.196Z,93.80
2019-05-13T15:24:21.426Z,93.30
2019-05-13T15:26:51.818Z,93.80
2019-05-13T15:29:22.286Z,94.00
2019-05-13T15:31:51.544Z,93.70
2019-05-13T15:34:20.429Z,93.50
2019-05-13T15:36:50.779Z,93.40
2019-05-13T15:39:19.922Z,93.50
2019-05-13T15:41:49.008Z,93.40
2019-05-13T15:44:17.959Z,93.20
2019-05-13T15:46:46.870Z,92.60
2019-05-13T15:49:16.211Z,93.10
2019-05-13T15:51:45.461Z,93.10
2019-05-13T15:54:15.790Z,93.10
2019-05-13T15:56:45.207Z,93.20
2019-05-13T15:59:14.019Z,93.40
2019-05-13T16:01:42.754Z,93.50
2019-05-13T16:04:13.567Z,93.50
2019-05-13T16:06:42.540Z,93.50
2019-05-13T16:09:11.808Z,93.40
2019-05-13T16:11:41.715Z,93.50
2019-05-13T16:14:11.694Z,93.40
2019-05-13T16:16:41.802Z,93.40
2019-05-13T16:19:11.565Z,93.50
2019-05-13T16:21:41.634Z,93.50
2019-05-13T16:24:12.158Z,93.60
2019-05-13T16:26:42.736Z,93.50
2019-05-13T16:29:12.716Z,93.60
2019-05-13T16:31:42.209Z,93.10
2019-05-13T16:34:32.061Z,93.20
2019-05-13T16:37:01.867Z,93.10
2019-05-13T16:39:32.255Z,93.50
2019-05-13T16:42:01.048Z,93.00
2019-05-13T16:44:31.915Z,93.20
2019-05-13T16:47:01.508Z,92.90
2019-05-13T16:49:31.894Z,93.30
2019-05-13T16:52:02.485Z,93.00
2019-05-13T16:54:32.920Z,93.30
2019-05-13T16:57:01.626Z,93.40
2019-05-13T16:59:31.585Z,93.40
2019-05-13T17:02:01.864Z,93.40
2019-05-13T17:04:32.191Z,93.20
2019-05-13T17:07:21.246Z,93.30
2019-05-13T17:09:51.944Z,93.50
2019-05-13T17:12:21.268Z,93.50
2019-05-13T17:14:52.295Z,93.20
2019-05-13T17:17:21.329Z,93.10
2019-05-13T17:19:53.272Z,92.80
2019-05-13T17:22:20.973Z,92.80
2019-05-13T17:24:52.042Z,92.60
2019-05-13T17:27:21.410Z,92.80
2019-05-13T17:29:51.595Z,92.70
2019-05-13T17:32:22.194Z,92.60
2019-05-13T17:34:51.561Z,92.50
2019-05-13T17:37:22.098Z,92.70
2019-05-13T17:39:51.167Z,92.60
2019-05-13T17:42:21.479Z,92.90
2019-05-13T17:44:51.636Z,92.90
2019-05-13T17:47:21.866Z,92.70
2019-05-13T17:49:52.116Z,92.50
2019-05-13T17:52:22.129Z,92.50
2019-05-13T17:54:51.807Z,92.40
2019-05-13T17:57:21.600Z,92.50
2019-05-13T17:59:52.082Z,92.30
2019-05-13T18:02:21.494Z,92.40
2019-05-13T18:04:52.131Z,92.50
2019-05-13T18:07:21.490Z,92.60
2019-05-13T18:09:52.009Z,92.50
2019-05-13T18:12:22.302Z,92.50
2019-05-13T18:14:52.432Z,92.50
2019-05-13T18:17:21.777Z,92.50
2019-05-13T18:19:51.528Z,92.60
2019-05-13T18:22:20.510Z,92.20
2019-05-13T18:24:51.734Z,92.70
2019-05-13T18:27:21.973Z,92.50
2019-05-13T18:29:51.330Z,92.00
2019-05-13T18:32:21.477Z,92.50
2019-05-13T18:34:50.533Z,92.40
2019-05-13T18:37:19.353Z,92.10
2019-05-13T18:39:48.362Z,92.30
2019-05-13T18:42:17.192Z,92.50
2019-05-13T18:44:46.610Z,92.60
2019-05-13T18:47:16.487Z,92.70
2019-05-13T18:49:45.583Z,92.70
2019-05-13T18:52:14.440Z,92.80
2019-05-13T18:54:43.296Z,92.90
2019-05-13T18:57:12.356Z,92.90
2019-05-13T18:59:41.647Z,92.90
2019-05-13T19:02:12.296Z,92.90
2019-05-13T19:04:41.759Z,93.00
2019-05-13T19:07:10.615Z,92.90
2019-05-13T19:09:41.594Z,93.00
2019-05-13T19:12:11.632Z,92.80
2019-05-13T19:14:41.206Z,93.00
2019-05-13T19:17:12.138Z,93.00
2019-05-13T19:19:42.178Z,93.10
2019-05-13T19:22:12.222Z,93.10
2019-05-13T19:24:41.709Z,93.00
2019-05-13T19:27:12.055Z,93.20
2019-05-13T19:29:42.481Z,92.80
2019-05-13T19:32:12.397Z,92.90
2019-05-13T19:34:42.309Z,93.10
2019-05-13T19:37:11.621Z,92.80
2019-05-13T19:39:40.568Z,92.60
2019-05-13T19:42:11.437Z,92.80
2019-05-13T19:44:41.882Z,93.30
2019-05-13T19:47:12.221Z,93.50
2019-05-13T19:49:44.107Z,93.30
2019-05-13T19:52:11.966Z,93.30
2019-05-13T19:54:42.051Z,93.50
2019-05-13T19:57:11.927Z,93.40
2019-05-13T19:59:42.668Z,93.50
2019-05-13T20:02:12.221Z,93.60
2019-05-13T20:04:41.512Z,93.70
2019-05-13T20:07:11.852Z,93.60
2019-05-13T20:09:42.604Z,93.70
2019-05-13T20:12:11.359Z,93.50
2019-05-13T20:14:40.289Z,93.50
2019-05-13T20:17:09.145Z,93.80
2019-05-13T20:19:47.760Z,93.50
2019-05-13T20:22:08.367Z,93.60
2019-05-13T20:24:37.116Z,93.70
2019-05-13T20:27:05.921Z,93.40
2019-05-13T20:29:34.650Z,93.80
2019-05-13T20:32:03.532Z,93.80
2019-05-13T20:34:32.366Z,93.90
2019-05-13T20:37:02.180Z,94.30
2019-05-13T20:39:32.054Z,93.90
2019-05-13T20:42:01.651Z,94.00
2019-05-13T20:44:31.267Z,93.90
2019-05-13T20:47:01.572Z,94.00
2019-05-13T20:49:31.180Z,93.70
2019-05-13T20:52:00.217Z,93.80
2019-05-13T20:54:31.214Z,94.10
2019-05-13T20:57:01.784Z,93.90
2019-05-13T20:59:32.011Z,94.10
2019-05-13T21:02:02.413Z,94.10
2019-05-13T21:04:32.194Z,94.30
2019-05-13T21:07:02.120Z,94.30
2019-05-13T21:09:31.675Z,94.20
2019-05-13T21:12:01.738Z,94.10
2019-05-13T21:14:32.062Z,93.90
2019-05-13T21:17:01.478Z,94.10
2019-05-13T21:19:39.328Z,94.40
2019-05-13T21:22:00.861Z,94.30
2019-05-13T21:24:31.711Z,94.70
2019-05-13T21:27:01.967Z,94.30
2019-05-13T21:29:32.307Z,94.40
2019-05-13T21:32:01.210Z,94.30
2019-05-13T21:34:31.609Z,94.30
2019-05-13T21:37:02.346Z,94.10
2019-05-13T21:39:31.964Z,94.10
2019-05-13T21:42:02.385Z,94.00
2019-05-13T21:44:32.671Z,94.20
2019-05-13T21:47:02.152Z,94.20
2019-05-13T21:49:32.011Z,94.50
2019-05-13T21:52:00.872Z,94.30
2019-05-13T21:54:33.222Z,94.10
2019-05-13T21:57:02.071Z,94.10
2019-05-13T21:59:31.911Z,94.00
2019-05-13T22:02:01.667Z,93.40
2019-05-13T22:04:30.457Z,93.30
2019-05-13T22:07:01.314Z,93.50
2019-05-13T22:09:31.729Z,93.00
2019-05-13T22:12:01.872Z,92.90
2019-05-13T22:14:32.002Z,92.60
2019-05-13T22:17:01.576Z,93.10
2019-05-13T22:19:31.534Z,92.60
2019-05-13T22:22:02.247Z,93.00
2019-05-13T22:24:31.369Z,93.10
2019-05-13T22:27:01.919Z,93.10
2019-05-13T22:29:32.160Z,92.80
2019-05-13T22:32:02.045Z,92.80
2019-05-13T22:34:31.913Z,93.00
2019-05-13T22:37:02.396Z,92.80
2019-05-13T22:39:34.611Z,93.00
2019-05-13T22:42:01.765Z,92.60
2019-05-13T22:44:32.473Z,92.60
2019-05-13T22:47:02.495Z,92.40
2019-05-13T22:49:31.287Z,92.40
2019-05-13T22:51:59.960Z,92.20
2019-05-13T22:54:28.689Z,91.90
2019-05-13T22:56:57.430Z,92.10
2019-05-13T22:59:26.233Z,91.80
2019-05-13T23:01:55.060Z,91.80
2019-05-13T23:04:23.794Z,92.10
2019-05-13T23:06:52.534Z,92.10
2019-05-13T23:09:21.617Z,91.90
2019-05-13T23:11:51.090Z,92.10
2019-05-13T23:14:21.834Z,92.00
2019-05-13T23:16:50.309Z,91.50
2019-05-13T23:19:19.035Z,92.30
2019-05-13T23:21:47.773Z,92.00
2019-05-13T23:24:16.501Z,91.70
2019-05-13T23:26:45.249Z,91.60
2019-05-13T23:29:13.977Z,91.80
2019-05-13T23:31:42.702Z,91.90
2019-05-13T23:34:12.014Z,91.40
2019-05-13T23:36:42.318Z,91.80
2019-05-13T23:39:11.611Z,91.50
2019-05-13T23:41:41.582Z,91.30
2019-05-13T23:44:23.801Z,91.40
2019-05-13T23:46:42.052Z,91.60
2019-05-13T23:49:11.864Z,91.30
2019-05-13T23:51:41.356Z,91.40
2019-05-13T23:54:12.079Z,91.80
2019-05-13T23:56:41.681Z,91.20
2019-05-13T23:59:11.324Z,91.40
